createdAt,value
2022-09-20T00:01:28.506Z,7.58
2022-09-20T00:03:57.501Z,7.53
2022-09-20T00:06:27.158Z,7.55
2022-09-20T00:08:54.360Z,7.57
2022-09-20T00:11:26.651Z,7.58
2022-09-20T00:13:56.246Z,7.62
2022-09-20T00:16:26.238Z,7.63
2022-09-20T00:18:55.268Z,7.64
2022-09-20T00:21:24.038Z,7.62
2022-09-20T00:23:52.220Z,7.64
2022-09-20T00:26:19.284Z,7.58
2022-09-20T00:28:47.028Z,7.60
2022-09-20T00:31:15.232Z,7.60
2022-09-20T00:34:00.441Z,7.58
2022-09-20T00:36:29.803Z,7.54
2022-09-20T00:39:00.114Z,7.52
2022-09-20T00:41:27.524Z,7.54
2022-09-20T00:43:54.948Z,7.53
2022-09-20T00:46:26.337Z,7.55
2022-09-20T00:48:58.902Z,7.52
2022-09-20T00:51:33.090Z,7.54
2022-09-20T00:54:04.851Z,7.58
2022-09-20T00:56:34.733Z,7.57
2022-09-20T00:59:10.651Z,7.54
2022-09-20T01:01:37.583Z,7.52
2022-09-20T01:04:04.848Z,7.50
2022-09-20T01:06:33.064Z,7.54
2022-09-20T01:09:03.470Z,7.53
2022-09-20T01:11:31.431Z,7.52
2022-09-20T01:13:57.739Z,7.52
2022-09-20T01:16:26.677Z,7.49
2022-09-20T01:18:55.053Z,7.47
2022-09-20T01:21:21.613Z,7.45
2022-09-20T01:24:00.180Z,7.42
2022-09-20T01:26:51.964Z,7.42
2022-09-20T01:29:47.819Z,7.40
2022-09-20T01:32:19.592Z,7.38
2022-09-20T01:34:50.910Z,7.33
2022-09-20T01:37:28.466Z,7.37
2022-09-20T01:40:11.730Z,7.34
2022-09-20T01:42:46.081Z,7.37
2022-09-20T01:45:32.324Z,7.35
2022-09-20T01:48:04.449Z,7.37
2022-09-20T01:50:45.011Z,7.32
2022-09-20T01:53:31.165Z,7.30
2022-09-20T01:56:09.154Z,7.28
2022-09-20T01:59:24.699Z,7.31
2022-09-20T02:01:54.239Z,7.30
2022-09-20T02:04:33.338Z,7.29
2022-09-20T02:07:18.027Z,7.24
2022-09-20T02:10:03.150Z,7.24
2022-09-20T02:12:48.011Z,7.20
2022-09-20T02:15:41.237Z,7.20
2022-09-20T02:18:45.837Z,7.19
2022-09-20T02:21:41.857Z,7.20
2022-09-20T02:24:29.421Z,7.17
2022-09-20T02:27:01.714Z,7.21
2022-09-20T02:29:37.322Z,7.14
2022-09-20T02:32:26.318Z,7.03
2022-09-20T02:35:12.008Z,6.98
2022-09-20T02:38:01.419Z,6.94
2022-09-20T02:40:56.216Z,6.91
2022-09-20T02:43:37.524Z,6.92
2022-09-20T02:57:09.594Z,6.79
2022-09-20T02:59:42.833Z,6.83
2022-09-20T03:02:30.607Z,6.91
2022-09-20T03:05:00.016Z,6.86
2022-09-20T03:08:03.278Z,6.85
2022-09-20T03:10:50.609Z,6.85
2022-09-20T03:13:26.321Z,6.80
2022-09-20T03:16:08.309Z,6.77
2022-09-20T03:18:51.555Z,6.72
2022-09-20T03:21:28.026Z,6.64
2022-09-20T03:24:23.344Z,6.61
2022-09-20T03:27:16.495Z,6.63
2022-09-20T03:30:01.793Z,6.57
2022-09-20T03:33:16.710Z,6.61
2022-09-20T03:35:53.488Z,6.57
2022-09-20T03:38:42.270Z,6.56
2022-09-20T03:41:33.381Z,6.54
2022-09-20T03:44:15.654Z,6.47
2022-09-20T03:46:47.288Z,6.41
2022-09-20T03:49:41.878Z,6.44
2022-09-20T03:52:45.262Z,6.37
2022-09-20T03:55:45.923Z,6.25
2022-09-20T03:58:34.249Z,6.16
2022-09-20T04:01:12.252Z,6.00
2022-09-20T04:04:18.232Z,5.99
2022-09-20T04:06:50.618Z,6.01
2022-09-20T04:09:22.540Z,6.03
2022-09-20T04:12:09.371Z,5.96
2022-09-20T04:14:45.359Z,5.98
2022-09-20T04:18:19.714Z,6.04
2022-09-20T04:21:00.500Z,6.07
2022-09-20T04:24:00.678Z,6.05
2022-09-20T04:26:30.082Z,5.99
2022-09-20T04:29:44.750Z,6.01
2022-09-20T04:32:36.603Z,5.92
2022-09-20T04:35:33.533Z,5.79
2022-09-20T04:38:05.395Z,5.69
2022-09-20T04:41:12.152Z,5.58
2022-09-20T04:43:41.481Z,5.54
2022-09-20T04:46:18.192Z,5.45
2022-09-20T04:49:07.760Z,5.47
2022-09-20T04:51:50.923Z,5.49
2022-09-20T04:54:42.067Z,5.38
2022-09-20T04:57:45.746Z,5.28
2022-09-20T05:00:19.637Z,5.23
2022-09-20T05:03:05.162Z,5.24
2022-09-20T05:05:43.543Z,5.17
2022-09-20T05:08:34.896Z,5.17
2022-09-20T05:11:15.487Z,5.20
2022-09-20T05:14:12.851Z,5.22
2022-09-20T05:17:14.487Z,5.20
2022-09-20T05:19:50.830Z,5.27
2022-09-20T05:22:45.212Z,5.28
2022-09-20T05:25:25.682Z,5.30
2022-09-20T05:28:35.113Z,5.28
2022-09-20T05:31:24.914Z,5.41
2022-09-20T05:34:01.868Z,5.56
2022-09-20T05:36:47.214Z,5.58
2022-09-20T05:39:31.709Z,5.61
2022-09-20T05:42:36.046Z,5.67
2022-09-20T05:45:47.269Z,5.73
2022-09-20T05:48:22.873Z,5.77
2022-09-20T05:51:03.507Z,5.80
2022-09-20T05:53:39.198Z,5.91
2022-09-20T05:56:43.113Z,5.92
2022-09-20T05:59:40.279Z,5.98
2022-09-20T06:02:24.734Z,6.10
2022-09-20T06:05:16.949Z,6.32
2022-09-20T06:08:14.469Z,6.43
2022-09-20T06:10:47.347Z,6.55
2022-09-20T06:13:34.721Z,6.71
2022-09-20T06:16:06.935Z,6.78
2022-09-20T06:19:01.077Z,6.93
2022-09-20T06:21:49.469Z,7.08
2022-09-20T06:24:35.342Z,7.10
2022-09-20T06:27:08.736Z,7.24
2022-09-20T06:29:40.044Z,7.28
2022-09-20T06:32:06.392Z,7.35
2022-09-20T06:34:32.709Z,7.41
2022-09-20T06:37:45.042Z,7.51
2022-09-20T06:40:46.281Z,7.60
2022-09-20T06:43:14.325Z,7.69
2022-09-20T06:45:41.725Z,7.83
2022-09-20T06:48:13.124Z,7.89
2022-09-20T06:50:39.729Z,7.96
2022-09-20T06:53:06.555Z,7.94
2022-09-20T06:55:42.169Z,8.08
2022-09-20T06:58:09.648Z,8.15
2022-09-20T07:00:36.797Z,8.25
2022-09-20T07:03:03.144Z,8.33
2022-09-20T07:05:29.434Z,8.39
2022-09-20T07:07:59.602Z,8.33
2022-09-20T07:10:30.034Z,8.51
2022-09-20T07:13:01.672Z,8.60
2022-09-20T07:15:29.300Z,8.62
2022-09-20T07:17:55.718Z,8.77
2022-09-20T07:20:22.950Z,8.76
2022-09-20T07:22:49.659Z,8.96
2022-09-20T07:25:18.039Z,8.99
2022-09-20T07:27:46.306Z,8.98
2022-09-20T07:30:14.406Z,9.13
2022-09-20T07:32:40.923Z,9.21
2022-09-20T07:35:11.860Z,9.41
2022-09-20T07:37:41.292Z,9.44
2022-09-20T07:40:09.776Z,9.57
2022-09-20T07:42:36.148Z,9.66
2022-09-20T07:45:03.644Z,9.48
2022-09-20T07:47:32.004Z,9.66
2022-09-20T07:49:58.466Z,9.77
2022-09-20T07:52:24.840Z,9.86
2022-09-20T07:54:51.189Z,9.95
2022-09-20T07:57:17.487Z,10.09
2022-09-20T07:59:43.820Z,10.07
2022-09-20T08:02:14.961Z,10.16
2022-09-20T08:04:41.430Z,10.27
2022-09-20T08:07:07.769Z,10.26
2022-09-20T08:09:34.193Z,10.50
2022-09-20T08:14:05.347Z,10.62
2022-09-20T08:14:47.729Z,10.65
2022-09-20T08:17:14.014Z,10.65
2022-09-20T08:19:40.566Z,10.78
2022-09-20T08:22:06.975Z,10.91
2022-09-20T08:24:33.509Z,10.91
2022-09-20T08:26:59.798Z,10.89
2022-09-20T08:29:26.249Z,10.91
2022-09-20T08:31:52.939Z,11.01
2022-09-20T08:34:19.249Z,11.13
2022-09-20T08:36:46.938Z,11.17
2022-09-20T08:42:14.349Z,11.16
2022-09-20T08:45:00.052Z,11.28
2022-09-20T08:47:33.074Z,11.37
2022-09-20T08:50:00.941Z,11.49
2022-09-20T08:52:36.259Z,11.45
2022-09-20T08:55:13.336Z,11.57
2022-09-20T08:57:39.680Z,11.72
2022-09-20T09:00:07.050Z,11.67
2022-09-20T09:02:34.309Z,11.78
2022-09-20T09:05:02.959Z,11.94
2022-09-20T09:07:29.499Z,11.97
2022-09-20T09:09:56.598Z,12.00
2022-09-20T09:12:29.667Z,12.02
2022-09-20T09:15:21.291Z,11.87
2022-09-20T09:17:47.585Z,12.07
2022-09-20T09:20:13.806Z,12.25
2022-09-20T09:22:42.676Z,11.98
2022-09-20T09:25:34.970Z,11.90
2022-09-20T09:28:07.151Z,12.19
2022-09-20T09:30:39.362Z,12.27
2022-09-20T09:33:31.573Z,12.33
2022-09-20T09:36:04.048Z,12.49
2022-09-20T09:38:38.008Z,12.83
2022-09-20T09:41:08.381Z,12.86
2022-09-20T09:43:37.187Z,12.55
2022-09-20T09:46:23.837Z,12.29
2022-09-20T09:49:19.753Z,12.34
2022-09-20T09:52:14.607Z,12.64
2022-09-20T09:54:51.915Z,12.61
2022-09-20T09:57:32.957Z,12.65
2022-09-20T10:00:21.342Z,12.75
2022-09-20T10:03:01.262Z,13.07
2022-09-20T10:05:50.445Z,13.33
2022-09-20T10:08:55.125Z,13.28
2022-09-20T10:11:58.716Z,13.02
2022-09-20T10:15:02.028Z,12.85
2022-09-20T10:17:52.656Z,12.92
2022-09-20T10:20:31.292Z,12.97
2022-09-20T10:23:30.091Z,13.21
2022-09-20T10:26:00.561Z,13.27
2022-09-20T10:29:28.770Z,13.24
2022-09-20T10:32:15.445Z,13.48
2022-09-20T10:34:57.732Z,13.23
2022-09-20T10:37:57.533Z,12.95
2022-09-20T10:40:54.502Z,12.76
2022-09-20T10:43:52.940Z,12.68
2022-09-20T10:46:45.051Z,12.95
2022-09-20T10:49:26.007Z,13.26
2022-09-20T10:52:31.541Z,13.52
2022-09-20T10:55:37.136Z,13.86
2022-09-20T10:58:34.448Z,13.63
2022-09-20T11:01:17.509Z,13.45
2022-09-20T11:04:02.148Z,13.40
2022-09-20T11:06:34.549Z,13.42
2022-09-20T11:09:03.261Z,13.34
2022-09-20T11:11:42.412Z,13.67
2022-09-20T11:14:19.253Z,13.74
2022-09-20T11:17:00.559Z,13.95
2022-09-20T11:19:37.809Z,14.21
2022-09-20T11:22:11.632Z,14.31
2022-09-20T11:24:47.726Z,14.00
2022-09-20T11:27:20.704Z,13.85
2022-09-20T11:29:55.868Z,13.82
2022-09-20T11:32:30.656Z,13.97
2022-09-20T11:35:03.126Z,14.13
2022-09-20T11:37:37.282Z,14.23
2022-09-20T11:40:30.094Z,14.26
2022-09-20T11:42:59.907Z,14.08
2022-09-20T11:45:28.924Z,14.19
2022-09-20T11:48:04.192Z,14.29
2022-09-20T11:50:51.405Z,14.25
2022-09-20T11:53:40.912Z,14.24
2022-09-20T11:56:32.357Z,14.03
2022-09-20T11:59:02.470Z,14.33
2022-09-20T12:01:30.267Z,14.67
2022-09-20T12:04:30.710Z,14.10
2022-09-20T12:06:58.494Z,14.00
2022-09-20T12:09:29.436Z,13.91
2022-09-20T12:11:56.641Z,13.76
2022-09-20T12:14:29.827Z,13.83
2022-09-20T12:16:56.940Z,14.03
2022-09-20T12:19:38.631Z,14.09
2022-09-20T12:22:04.909Z,14.22
2022-09-20T12:24:33.249Z,14.47
2022-09-20T12:27:20.052Z,14.81
2022-09-20T12:29:47.468Z,14.85
2022-09-20T12:32:45.463Z,14.57
2022-09-20T12:35:36.647Z,14.87
2022-09-20T12:38:27.971Z,15.03
2022-09-20T12:41:09.161Z,14.85
2022-09-20T12:43:39.735Z,14.99
2022-09-20T12:46:11.838Z,15.16
2022-09-20T12:48:38.835Z,15.09
2022-09-20T12:51:48.708Z,14.82
2022-09-20T12:54:16.462Z,14.65
2022-09-20T12:56:46.517Z,14.64
2022-09-20T12:59:24.344Z,14.57
2022-09-20T13:01:51.102Z,14.63
2022-09-20T13:04:41.786Z,14.90
2022-09-20T13:07:33.338Z,14.88
2022-09-20T13:10:06.389Z,14.91
2022-09-20T13:12:37.229Z,14.95
2022-09-20T13:15:05.899Z,14.86
2022-09-20T13:17:32.534Z,15.17
2022-09-20T13:19:59.633Z,15.17
2022-09-20T13:22:43.370Z,15.00
2022-09-20T13:25:20.376Z,14.70
2022-09-20T13:27:51.416Z,14.72
2022-09-20T13:30:19.323Z,14.83
2022-09-20T13:32:46.461Z,14.87
2022-09-20T13:35:12.761Z,14.72
2022-09-20T13:37:53.298Z,14.82
2022-09-20T13:40:40.792Z,14.92
2022-09-20T13:43:28.256Z,14.90
2022-09-20T13:46:11.147Z,15.01
2022-09-20T13:48:37.783Z,15.14
2022-09-20T13:51:14.708Z,15.07
2022-09-20T13:53:42.274Z,15.01
2022-09-20T13:56:21.475Z,15.33
2022-09-20T13:58:49.572Z,15.43
2022-09-20T14:01:23.943Z,15.25
2022-09-20T14:03:50.452Z,15.31
2022-09-20T14:06:16.913Z,15.34
2022-09-20T14:08:44.320Z,15.24
2022-09-20T14:11:21.156Z,15.39
2022-09-20T14:13:54.084Z,15.27
2022-09-20T14:16:24.357Z,15.20
2022-09-20T14:18:51.238Z,15.16
2022-09-20T14:21:23.302Z,15.17
2022-09-20T14:23:52.280Z,14.99
2022-09-20T14:26:28.670Z,14.89
2022-09-20T14:28:55.518Z,15.04
2022-09-20T14:31:32.297Z,15.14
2022-09-20T14:34:01.849Z,15.39
2022-09-20T14:36:30.410Z,15.46
2022-09-20T14:39:02.177Z,15.31
2022-09-20T14:41:39.609Z,15.23
2022-09-20T14:44:17.056Z,15.50
2022-09-20T14:46:43.378Z,15.39
2022-09-20T14:49:32.857Z,15.24
2022-09-20T14:52:27.390Z,15.30
2022-09-20T14:55:19.815Z,15.06
2022-09-20T14:57:47.304Z,14.97
2022-09-20T15:00:19.289Z,14.87
2022-09-20T15:02:46.506Z,14.80
2022-09-20T15:05:20.491Z,14.90
2022-09-20T15:07:47.568Z,14.89
2022-09-20T15:10:14.954Z,15.10
2022-09-20T15:12:42.048Z,15.16
2022-09-20T15:15:19.938Z,15.16
2022-09-20T15:17:47.261Z,15.30
2022-09-20T15:20:24.306Z,15.28
2022-09-20T15:22:51.054Z,15.34
2022-09-20T15:25:20.977Z,15.36
2022-09-20T15:27:49.269Z,15.39
2022-09-20T15:30:17.490Z,15.09
2022-09-20T15:32:44.468Z,15.24
2022-09-20T15:35:12.023Z,15.12
2022-09-20T15:37:38.392Z,15.16
2022-09-20T15:40:06.743Z,15.07
2022-09-20T15:42:33.980Z,14.88
2022-09-20T15:45:00.296Z,14.98
2022-09-20T15:47:28.524Z,14.98
2022-09-20T15:49:54.987Z,15.00
2022-09-20T15:52:25.033Z,15.13
2022-09-20T15:54:52.406Z,15.15
2022-09-20T15:57:19.140Z,14.94
2022-09-20T15:59:45.581Z,14.98
2022-09-20T16:02:12.557Z,15.07
2022-09-20T16:04:38.870Z,15.12
2022-09-20T16:07:06.990Z,14.91
2022-09-20T16:09:34.821Z,14.98
2022-09-20T16:12:01.466Z,14.88
2022-09-20T16:14:27.767Z,14.91
2022-09-20T16:16:55.622Z,14.70
2022-09-20T16:19:22.081Z,14.72
2022-09-20T16:21:57.830Z,14.72
2022-09-20T16:24:27.604Z,14.47
2022-09-20T16:26:54.122Z,14.47
2022-09-20T16:29:21.990Z,14.48
2022-09-20T16:31:50.099Z,14.38
2022-09-20T16:34:29.774Z,14.30
2022-09-20T16:37:05.737Z,14.22
2022-09-20T16:39:32.580Z,13.98
2022-09-20T16:42:04.662Z,13.72
2022-09-20T16:44:36.648Z,13.59
2022-09-20T16:47:07.807Z,13.52
2022-09-20T16:49:36.003Z,13.36
2022-09-20T16:52:05.018Z,13.15
2022-09-20T16:54:32.194Z,12.95
2022-09-20T16:56:58.946Z,12.85
2022-09-20T16:59:25.336Z,12.72
2022-09-20T17:01:52.370Z,12.70
2022-09-20T17:04:20.802Z,12.74
2022-09-20T17:06:48.478Z,12.79
2022-09-20T17:09:15.688Z,12.75
2022-09-20T17:11:47.259Z,12.69
2022-09-20T17:14:15.000Z,12.60
2022-09-20T17:16:42.205Z,12.49
2022-09-20T17:19:13.336Z,12.47
2022-09-20T17:21:46.095Z,12.40
2022-09-20T17:24:14.044Z,12.40
2022-09-20T17:26:44.301Z,12.30
2022-09-20T17:29:17.406Z,12.16
2022-09-20T17:31:50.087Z,12.09
2022-09-20T17:34:21.640Z,12.04
2022-09-20T17:36:49.269Z,12.01
2022-09-20T17:39:16.523Z,11.89
2022-09-20T17:41:45.665Z,11.77
2022-09-20T17:44:12.634Z,11.72
2022-09-20T17:46:41.063Z,11.62
2022-09-20T17:49:09.929Z,11.57
2022-09-20T17:51:39.564Z,11.51
2022-09-20T17:54:07.488Z,11.51
2022-09-20T17:56:35.525Z,11.37
2022-09-20T17:59:04.162Z,11.16
2022-09-20T18:01:33.329Z,11.12
2022-09-20T18:04:01.697Z,10.90
2022-09-20T18:06:31.006Z,10.75
2022-09-20T18:09:02.852Z,10.65
2022-09-20T18:11:31.511Z,10.52
2022-09-20T18:14:01.408Z,10.32
2022-09-20T18:16:28.683Z,10.35
2022-09-20T18:18:55.108Z,10.26
2022-09-20T18:21:24.185Z,10.26
2022-09-20T18:23:51.769Z,10.24
2022-09-20T18:26:23.556Z,10.19
2022-09-20T18:28:57.527Z,10.21
2022-09-20T18:31:32.117Z,10.29
2022-09-20T18:34:00.584Z,10.32
2022-09-20T18:36:28.877Z,10.31
2022-09-20T18:38:57.423Z,10.22
2022-09-20T18:41:26.800Z,10.12
2022-09-20T18:43:55.086Z,10.01
2022-09-20T18:46:26.758Z,9.78
2022-09-20T18:49:04.839Z,9.66
2022-09-20T18:51:33.033Z,9.72
2022-09-20T18:54:02.190Z,9.68
2022-09-20T18:56:34.186Z,9.50
2022-09-20T18:59:13.436Z,9.49
2022-09-20T19:01:55.858Z,9.44
2022-09-20T19:04:47.232Z,9.49
2022-09-20T19:07:36.043Z,9.31
2022-09-20T19:10:05.301Z,9.23
2022-09-20T19:12:48.372Z,9.12
2022-09-20T19:15:43.826Z,9.09
2022-09-20T19:18:27.791Z,9.11
2022-09-20T19:21:42.120Z,9.10
2022-09-20T19:24:36.141Z,9.02
2022-09-20T19:27:02.602Z,9.05
2022-09-20T19:29:29.577Z,9.12
2022-09-20T19:31:58.816Z,9.13
2022-09-20T19:34:27.906Z,9.10
2022-09-20T19:37:08.136Z,8.91
2022-09-20T19:39:50.666Z,8.79
2022-09-20T19:43:05.181Z,8.56
2022-09-20T19:45:52.968Z,8.71
2022-09-20T19:48:38.882Z,8.79
2022-09-20T19:51:10.883Z,8.83
2022-09-20T19:53:39.136Z,8.80
2022-09-20T19:56:26.132Z,8.75
2022-09-20T19:58:53.900Z,8.72
2022-09-20T20:01:25.269Z,8.74
2022-09-20T20:03:53.756Z,8.79
2022-09-20T20:06:27.376Z,8.83
2022-09-20T20:09:08.218Z,8.79
2022-09-20T20:11:59.177Z,8.74
2022-09-20T20:14:47.343Z,8.67
2022-09-20T20:17:19.638Z,8.57
2022-09-20T20:20:13.165Z,8.56
2022-09-20T20:22:58.256Z,8.44
2022-09-20T20:25:35.516Z,8.37
2022-09-20T20:28:01.918Z,8.33
2022-09-20T20:30:28.321Z,8.35
2022-09-20T20:32:58.020Z,8.39
2022-09-20T20:35:25.833Z,8.38
2022-09-20T20:37:53.190Z,8.39
2022-09-20T20:40:19.610Z,8.38
2022-09-20T20:42:46.537Z,8.30
2022-09-20T20:45:13.683Z,8.35
2022-09-20T20:47:40.767Z,8.31
2022-09-20T20:50:07.329Z,8.33
2022-09-20T20:52:33.644Z,8.30
2022-09-20T20:55:00.094Z,8.09
2022-09-20T20:57:27.896Z,8.06
2022-09-20T20:59:54.198Z,8.02
2022-09-20T21:02:21.425Z,8.03
2022-09-20T21:04:48.048Z,8.02
2022-09-20T21:07:16.385Z,7.96
2022-09-20T21:09:42.679Z,7.91
2022-09-20T21:12:09.278Z,7.90
2022-09-20T21:14:35.608Z,7.93
2022-09-20T21:17:02.343Z,7.97
2022-09-20T21:19:28.642Z,7.98
2022-09-20T21:21:54.916Z,7.96
2022-09-20T21:24:21.399Z,7.93
2022-09-20T21:26:48.394Z,7.91
2022-09-20T21:29:16.014Z,7.87
2022-09-20T21:31:44.819Z,7.79
2022-09-20T21:34:12.872Z,7.78
2022-09-20T21:36:41.343Z,7.74
2022-09-20T21:39:07.819Z,7.76
2022-09-20T21:41:36.875Z,7.72
2022-09-20T21:44:04.851Z,7.71
2022-09-20T21:46:40.187Z,7.67
2022-09-20T21:49:08.785Z,7.56
2022-09-20T21:51:35.937Z,7.56
2022-09-20T21:54:02.857Z,7.54
2022-09-20T21:56:35.175Z,7.47
2022-09-20T21:59:03.912Z,7.39
2022-09-20T22:01:34.418Z,7.38
2022-09-20T22:04:05.061Z,7.33
2022-09-20T22:06:33.848Z,7.31
2022-09-20T22:09:10.562Z,7.29
2022-09-20T22:11:41.868Z,7.24
2022-09-20T22:14:09.662Z,7.18
2022-09-20T22:16:38.667Z,7.08
2022-09-20T22:19:06.852Z,6.99
2022-09-20T22:21:38.611Z,6.99
2022-09-20T22:24:07.739Z,6.89
2022-09-20T22:26:37.140Z,7.04
2022-09-20T22:29:04.346Z,6.94
2022-09-20T22:31:33.255Z,7.00
2022-09-20T22:34:02.185Z,6.97
2022-09-20T22:36:31.567Z,6.91
2022-09-20T22:38:58.361Z,6.76
2022-09-20T22:41:25.082Z,6.79
2022-09-20T22:43:51.847Z,6.69
2022-09-20T22:46:23.470Z,6.79
2022-09-20T22:48:50.419Z,6.76
2022-09-20T22:51:18.707Z,6.66
2022-09-20T22:53:46.163Z,6.75
2022-09-20T22:56:25.575Z,6.78
2022-09-20T22:58:54.058Z,6.80
2022-09-20T23:01:23.697Z,6.83
2022-09-20T23:03:55.928Z,6.80
2022-09-20T23:06:31.419Z,6.75
2022-09-20T23:09:00.049Z,6.67
2022-09-20T23:11:27.657Z,6.60
2022-09-20T23:14:02.169Z,6.67
2022-09-20T23:16:30.588Z,6.72
2022-09-20T23:18:58.924Z,6.74
2022-09-20T23:21:26.065Z,6.68
2022-09-20T23:23:54.328Z,6.46
2022-09-20T23:26:21.913Z,6.41
2022-09-20T23:28:54.493Z,6.43
2022-09-20T23:31:20.918Z,6.37
2022-09-20T23:33:48.839Z,6.30
2022-09-20T23:36:16.548Z,6.09
2022-09-20T23:38:42.849Z,6.07
2022-09-20T23:41:12.068Z,6.02
2022-09-20T23:43:39.525Z,6.04
2022-09-20T23:46:07.331Z,6.00
2022-09-20T23:48:36.171Z,5.98
2022-09-20T23:51:05.661Z,6.03
2022-09-20T23:53:32.238Z,6.04
2022-09-20T23:55:58.594Z,6.06
2022-09-20T23:58:24.972Z,6.03
